Latest Coastal Weather Observations for Gold Coast Seaway

IDQ60701

Issued at 12:51 pm EST Saturday 20 December 2014 (issued every 10 minutes, with the page automatically refreshed every 10 minutes)

About coastal observations | Map of coastal stations | Coastal observations for QLD | Marine services | Other Formats
Station Details ID: 040764 Name: GOLD COAST SEAWAY Lat: -27.94 Lon: 153.43 Height: 2.98 m
Data from the previous 72 hours. | See also: Recent months at Gold Coast Seaway
Date/Time
EST
Temp

°C
Wind Pressure Rain
since 9am
mm
Weather Cloud Vis
km
Sea
Height
m
Swell
Dir
 
Speed
knots
Gust
knots
hPa Trend Height
m
Period
s
Dir
20/12:30pm 27.2 SE 14 16 1015.6 - 0.0 - - - - - - -
20/12:00pm 28.0 SE 14 16 1015.8 - 0.0 - - - - - - -
20/11:30am 28.2 SE 14 16 1016.2 - 0.0 - - - - - - -
20/11:00am 28.0 SE 14 16 1016.4 - 0.0 - - - - - - -
20/10:30am 27.5 SE 14 16 1016.4 - 0.0 - - - - - - -
20/10:00am 27.7 SE 14 16 1016.5 - 0.0 - - - - - - -
20/09:30am 27.2 SE 14 16 1016.5 - 0.0 - - - - - - -
20/09:00am 27.2 SE 13 15 1016.4 - 0.2 - - - - - - -
20/08:30am 25.5 SSE 13 16 1016.2 - 0.2 - - - - - - -
20/08:00am 26.5 SSE 14 17 1016.1 - 0.2 - - - - - - -
20/07:30am 25.9 SSE 13 16 1015.8 - 0.2 - - - - - - -
20/07:00am 25.5 S 14 16 1015.6 - 0.2 - - - - - - -
20/06:30am 24.2 S 14 17 1015.2 - 0.2 - - - - - - -
20/06:00am 23.2 S 15 18 1014.9 - 0.2 - - - - - - -
20/05:30am 22.7 S 14 17 1014.6 - 0.2 - - - - - - -
20/05:00am 22.1 S 11 14 1014.2 - 0.2 - - - - - - -
20/04:30am 22.1 S 12 16 1013.9 - 0.2 - - - - - - -
20/04:00am 22.1 S 11 15 1013.7 - 0.2 - - - - - - -
20/03:30am 22.1 S 10 15 1013.5 - 0.2 - - - - - - -
20/03:00am 22.2 S 11 15 1013.5 - 0.2 - - - - - - -
20/02:30am 22.3 S 12 15 1013.3 - 0.2 - - - - - - -
20/02:00am 22.4 S 13 19 1013.4 - 0.2 - - - - - - -
20/01:30am 22.9 S 17 21 1013.3 - 0.2 - - - - - - -
20/01:00am 23.2 S 19 23 1013.4 - 0.2 - - - - - - -
20/12:30am 23.2 S 19 24 1013.7 - 0.2 - - - - - - -
20/12:00am 23.2 S 20 24 1013.9 - 0.2 - - - - - - -
 
Date/Time
EST
Temp

°C
Wind Pressure Rain
since 9am
mm
Weather Cloud Vis
km
Sea
Height
m
Swell
Dir
 
Speed
knots
Gust
knots
hPa Trend Height
m
Period
s
Dir
19/11:30pm 23.2 S 20 24 1014.1 - 0.2 - - - - - - -
19/11:00pm 23.4 S 21 25 1014.2 - 0.2 - - - - - - -
19/10:30pm 23.6 S 20 24 1014.2 - 0.2 - - - - - - -
19/10:00pm 23.8 SSE 21 26 1014.1 - 0.2 - - - - - - -
19/09:30pm 24.2 SSE 20 24 1013.8 - 0.2 - - - - - - -
19/09:00pm 24.4 SSE 19 24 1013.5 - 0.2 - - - - - - -
19/08:30pm 24.8 SSE 18 22 1013.2 - 0.2 - - - - - - -
19/08:00pm 24.9 SSE 19 23 1012.8 - 0.2 - - - - - - -
19/07:43pm 24.7 SE 12 21 1012.5 - 0.2 - - - - - - -
19/07:30pm 24.6 ESE 7 9 1012.3 - 0.2 - - - - - - -
19/07:00pm 25.1 E 7 8 1011.8 - 0.2 - - - - - - -
19/06:30pm 25.4 E 6 8 1011.3 - 0.2 - - - - - - -
19/06:00pm 26.0 ENE 9 9 1010.9 - 0.2 - - - - - - -
19/05:30pm 25.8 ENE 12 15 1010.0 - 0.2 - - - - - - -
19/05:00pm 26.7 ENE 14 18 1009.2 - 0.2 - - - - - - -
19/04:30pm 27.0 NNE 14 16 1008.2 - 0.2 - - - - - - -
19/04:00pm 27.8 NNE 14 16 1007.9 - 0.2 - - - - - - -
19/03:30pm 28.4 NNE 15 17 1007.8 - 0.2 - - - - - - -
19/03:00pm 28.3 NE 14 16 1008.0 - 0.2 - - - - - - -
19/02:30pm 28.5 NE 15 17 1008.4 - 0.2 - - - - - - -
19/02:00pm 28.0 ENE 14 16 1008.6 - 0.2 - - - - - - -
19/01:30pm 29.6 ENE 14 16 1008.8 - 0.2 - - - - - - -
19/01:00pm 30.7 ENE 10 14 1009.1 - 0.2 - - - - - - -
19/12:30pm 31.9 NW 6 9 1009.3 - 0.2 - - - - - - -
19/12:00pm 31.0 NW 7 11 1009.6 - 0.2 - - - - - - -
19/11:30am 30.2 WNW 7 10 1009.9 - 0.2 - - - - - - -
19/11:00am 29.6 NW 8 12 1010.2 - 0.2 - - - - - - -
19/10:30am 28.5 NW 8 10 1010.4 - 0.2 - - - - - - -
19/10:00am 27.6 NW 8 12 1010.5 - 0.2 - - - - - - -
19/09:30am 26.7 NW 10 14 1010.8 - 0.0 - - - - - - -
19/09:00am 25.7 NW 9 12 1011.0 - 15.2 - - - - - - -
19/08:30am 24.0 NW 8 10 1011.2 - 15.2 - - - - - - -
19/08:00am 22.8 NNW 7 8 1011.3 - 15.2 - - - - - - -
19/07:30am 22.4 NNW 6 7 1011.2 - 15.2 - - - - - - -
19/07:00am 21.7 NW 6 7 1011.2 - 15.2 - - - - - - -
19/06:30am 21.2 WNW 6 8 1011.1 - 15.2 - - - - - - -
19/06:00am 20.9 NW 7 8 1010.9 - 15.2 - - - - - - -
19/05:30am 21.0 WNW 7 8 1010.9 - 15.2 - - - - - - -
19/05:00am 21.0 N 5 7 1010.9 - 15.2 - - - - - - -
19/04:30am 20.8 NNW 5 7 1010.3 - 15.2 - - - - - - -
19/04:00am 20.9 WNW 5 7 1010.6 - 15.2 - - - - - - -
19/03:30am 20.5 WSW 4 6 1010.6 - 15.2 - - - - - - -
19/03:00am 20.5 SW 4 5 1010.6 - 15.0 Recent precip. - - - - - -
19/02:30am 20.4 WSW 5 9 1011.2 - 14.8 - - - - - - -
19/02:00am 20.7 WSW 7 10 1011.7 - 13.8 - - - - - - -
19/01:30am 21.1 WSW 9 14 1011.8 - 13.2 - - - - - - -
19/01:00am 22.6 W 10 14 1011.9 - 12.4 - - - - - - -
19/12:30am 22.8 NW 7 9 1011.6 - 11.6 - - - - - - -
19/12:00am 23.0 NNW 4 6 1011.5 - 10.8 Rain - - - - - -
 
Date/Time
EST
Temp

°C
Wind Pressure Rain
since 9am
mm
Weather Cloud Vis
km
Sea
Height
m
Swell
Dir
 
Speed
knots
Gust
knots
hPa Trend Height
m
Period
s
Dir
18/11:30pm 22.8 N 4 6 1011.0 - 10.6 - - - - - - -
18/11:00pm 22.8 N 8 10 1011.1 - 10.4 - - - - - - -
18/10:30pm 23.1 NNW 6 7 1011.0 - 10.2 - - - - - - -
18/10:00pm 23.2 NW 9 11 1010.8 - 10.2 - - - - - - -
18/09:30pm 23.4 N 5 6 1010.4 - 10.2 - - - - - - -
18/09:00pm 23.5 N 4 6 1010.4 - 10.0 - - - - - - -
18/08:30pm 23.5 NNE 8 9 1009.7 - 10.0 - - - - - - -
18/08:00pm 22.9 N 3 4 1009.8 - 10.0 - - - - - - -
18/07:30pm 22.9 NW 7 9 1010.0 - 9.8 - - - - - - -
18/07:00pm 22.2 WSW 9 12 1009.9 - 9.8 - - - - - - -
18/06:30pm 21.9 WNW 16 21 1010.8 - 7.8 - - - - - - -
18/06:25pm 22.1 W 15 22 1011.2 - 6.2 - - - - - - -
18/06:13pm 23.1 WSW 19 33 1009.9 - 1.4 - - - - - - -
18/06:09pm 24.7 W 13 32 1009.0 - 0.2 - - - - - - -
18/06:00pm 26.4 NNW 9 12 1008.5 - 0.0 - - - - - - -
18/05:58pm 26.3 N 9 12 1008.3 - 0.0 - - - - - - -
18/05:30pm 26.0 N 12 15 1006.3 - 0.0 - - - - - - -
18/05:00pm 26.1 N 14 17 1006.1 - 0.0 - - - - - - -
18/04:30pm 26.3 N 15 17 1005.8 - 0.0 - - - - - - -
18/04:00pm 26.8 NNE 15 17 1005.7 - 0.0 - - - - - - -
18/03:30pm 27.1 NNE 16 18 1005.5 - 0.0 - - - - - - -
18/03:00pm 27.0 NNE 16 19 1006.2 - 0.0 - - - - - - -
18/02:30pm 28.3 NNE 15 17 1006.3 - 0.0 - - - - - - -
18/02:00pm 29.7 NNE 13 16 1006.6 - 0.0 - - - - - - -
18/01:30pm 30.1 NE 13 15 1007.4 - 0.0 - - - - - - -
18/01:00pm 29.8 NE 11 13 1008.0 - 0.0 - - - - - - -
18/12:30pm 29.9 NE 13 15 1008.4 - 0.0 - - - - - - -
18/12:00pm 29.7 ENE 11 14 1008.5 - 0.0 - - - - - - -
18/11:30am 30.4 NE 9 11 1009.4 - 0.0 - - - - - - -
18/11:00am 29.9 NE 6 7 1010.0 - 0.0 - - - - - - -
18/10:30am 29.0 NE 7 9 1010.3 - 0.0 - - - - - - -
18/10:00am 29.3 NNE 5 6 1010.2 - 0.0 - - - - - - -
18/09:30am 28.5 NNE 7 8 1010.1 - 0.0 - - - - - - -
18/09:00am 28.3 N 6 9 1010.5 - 0.0 - - - - - - -
18/08:30am 26.8 SE 6 7 1010.6 - 0.0 - - - - - - -
18/08:00am 27.3 CALM 0 0 1010.7 - 0.0 - - - - - - -
18/07:30am 25.9 SE 1 3 1010.9 - 0.0 - - - - - - -
18/07:00am 25.9 SE 3 4 1010.8 - 0.0 - - - - - - -
18/06:30am 25.3 SE 6 9 1010.5 - 0.0 - - - - - - -
18/06:00am 24.5 SSE 8 10 1010.1 - 0.0 - - - - - - -
18/05:30am 23.9 SSE 15 20 1009.3 - 0.0 - - - - - - -
18/05:00am 24.0 SSE 18 22 1009.1 - 0.0 - - - - - - -
18/04:30am 24.1 SSE 23 28 1008.4 - 0.0 - - - - - - -
18/04:00am 24.1 SSE 24 29 1008.9 - 0.0 - - - - - - -
18/03:53am 24.1 SSE 22 29 1009.1 - 0.0 - - - - - - -
18/03:30am 24.1 S 15 19 1009.2 - 0.0 - - - - - - -
18/03:00am 24.2 S 9 10 1009.2 - 0.0 - - - - - - -
18/02:30am 24.5 S 9 12 1009.3 - 0.0 - - - - - - -
18/02:00am 24.6 SSE 15 17 1008.9 - 0.0 - - - - - - -
18/01:30am 24.9 S 13 18 1009.9 - 0.0 - - - - - - -
18/01:00am 24.9 S 12 17 1009.5 - 0.0 - - - - - - -
18/12:30am 25.0 S 16 19 1008.8 - 0.0 - - - - - - -
18/12:00am 24.9 SSE 19 24 1008.0 - 0.0 - - - - - - -
 
Date/Time
EST
Temp

°C
Wind Pressure Rain
since 9am
mm
Weather Cloud Vis
km
Sea
Height
m
Swell
Dir
 
Speed
knots
Gust
knots
hPa Trend Height
m
Period
s
Dir
17/11:30pm 25.0 SE 14 20 1007.9 - 0.0 - - - - - - -
17/11:00pm 24.9 SSE 18 23 1008.0 - 0.0 - - - - - - -
17/10:53pm 25.2 SSE 16 20 1008.1 - 0.0 - - - - - - -
17/10:30pm 25.0 ESE 8 10 1008.3 - 0.0 - - - - - - -
17/10:00pm 24.9 NNE 2 5 1007.8 - 0.0 - - - - - - -
17/09:30pm 25.2 CALM 0 3 1007.2 - 0.0 - - - - - - -
17/09:00pm 25.4 NNE 6 7 1006.7 - 0.0 - - - - - - -
17/08:30pm 25.6 N 7 8 1006.4 - 0.0 - - - - - - -
17/08:00pm 25.6 N 10 11 1006.2 - 0.0 - - - - - - -
17/07:30pm 25.7 N 9 10 1005.6 - 0.0 - - - - - - -
17/07:00pm 25.9 NNE 9 13 1005.2 - 0.0 - - - - - - -
17/06:30pm 26.2 NNE 9 11 1004.8 - 0.0 - - - - - - -
17/06:00pm 26.5 N 12 15 1004.2 - 0.0 - - - - - - -
17/05:30pm 26.5 N 15 17 1003.7 - 0.0 - - - - - - -
17/05:00pm 27.5 NNE 14 16 1003.5 - 0.0 - - - - - - -
17/04:30pm 27.7 NNE 15 17 1003.4 - 0.0 - - - - - - -
17/04:00pm 28.6 N 16 19 1002.9 - 0.0 - - - - - - -
17/03:30pm 28.5 N 14 17 1002.8 - 0.0 - - - - - - -
17/03:00pm 29.4 N 15 17 1003.0 - 0.0 - - - - - - -
17/02:30pm 29.4 NNE 16 19 1003.4 - 0.0 - - - - - - -
17/02:00pm 30.1 NNE 17 20 1003.7 - 0.0 - - - - - - -
17/01:30pm 31.5 NNE 17 19 1003.9 - 0.0 - - - - - - -
17/01:00pm 33.2 NNE 17 20 1004.1 - 0.0 - - - - - - -

Other Formats:

Comma delimited format used in spreadsheet applications
http://www.bom.gov.au/fwo/IDQ60701/IDQ60701.94580.axf

JavaScript Object Notation format (JSON) in row-major order
http://www.bom.gov.au/fwo/IDQ60701/IDQ60701.94580.json